createdAt,value
2023-12-24T00:00:34.067Z,98726.70
2023-12-24T00:04:26.075Z,98730.95
2023-12-24T00:08:35.744Z,98739.55
2023-12-24T00:12:45.892Z,98753.09
2023-12-24T00:16:55.867Z,98764.61
2023-12-24T00:21:06.051Z,98772.48
2023-12-24T00:25:09.292Z,98774.91
2023-12-24T00:29:19.055Z,98772.16
2023-12-24T00:33:29.411Z,98774.01
2023-12-24T00:37:39.260Z,98779.35
2023-12-24T00:41:49.121Z,98782.92
2023-12-24T00:45:58.936Z,98794.05
2023-12-24T00:50:08.858Z,98802.12
2023-12-24T00:54:08.835Z,98812.05
2023-12-24T00:58:18.428Z,98820.10
2023-12-24T01:02:27.218Z,98829.86
2023-12-24T01:06:37.765Z,98835.48
2023-12-24T01:10:49.334Z,98844.31
2023-12-24T01:15:00.301Z,98843.39
2023-12-24T01:19:10.237Z,98846.95
2023-12-24T01:23:20.266Z,98847.20
2023-12-24T01:26:41.398Z,98846.11
2023-12-24T01:29:16.093Z,98853.59
2023-12-24T01:32:18.376Z,98856.95
2023-12-24T01:35:51.087Z,98855.57
2023-12-24T01:38:46.317Z,98858.14
2023-12-24T01:42:27.508Z,98857.98
2023-12-24T01:46:37.363Z,98860.23
2023-12-24T01:50:47.418Z,98866.79
2023-12-24T01:54:57.303Z,98868.20
2023-12-24T01:58:52.118Z,98867.20
2023-12-24T02:03:01.957Z,98869.81
2023-12-24T02:07:11.678Z,98871.20
2023-12-24T02:11:21.436Z,98869.46
2023-12-24T02:15:31.358Z,98863.83
2023-12-24T02:19:41.187Z,98865.71
2023-12-24T02:23:51.078Z,98865.38
2023-12-24T02:28:03.446Z,98877.42
2023-12-24T02:32:16.106Z,98881.74
2023-12-24T02:36:05.938Z,98882.98
2023-12-24T02:40:15.738Z,98888.83
2023-12-24T02:44:25.640Z,98895.58
2023-12-24T02:48:35.735Z,98897.67
2023-12-24T02:52:45.645Z,98901.12
2023-12-24T02:56:55.659Z,98904.92
2023-12-24T03:01:05.671Z,98905.70
2023-12-24T03:04:56.870Z,98907.59
2023-12-24T03:09:06.790Z,98910.20
2023-12-24T03:13:16.780Z,98914.70
2023-12-24T03:16:46.725Z,98917.27
2023-12-24T03:20:56.667Z,98919.36
2023-12-24T03:25:06.444Z,98924.86
2023-12-24T03:29:16.199Z,98931.39
2023-12-24T03:33:26.265Z,98935.15
2023-12-24T03:37:36.189Z,98933.94
2023-12-24T03:41:45.938Z,98937.02
2023-12-24T03:45:55.818Z,98936.48
2023-12-24T03:50:05.741Z,98935.50
2023-12-24T03:54:15.624Z,98936.30
2023-12-24T03:58:25.509Z,98938.96
2023-12-24T04:02:35.574Z,98945.48
2023-12-24T04:06:51.147Z,98940.96
2023-12-24T04:11:01.326Z,98936.48
2023-12-24T04:15:11.043Z,98939.80
2023-12-24T04:19:21.025Z,98936.13
2023-12-24T04:23:30.935Z,98940.82
2023-12-24T04:27:39.237Z,98939.80
2023-12-24T04:31:48.991Z,98940.58
2023-12-24T04:35:59.115Z,98945.80
2023-12-24T04:40:01.275Z,98952.94
2023-12-24T04:44:10.883Z,98959.80
2023-12-24T04:48:20.660Z,98961.69
2023-12-24T04:52:32.017Z,98963.15
2023-12-24T04:56:41.797Z,98964.04
2023-12-24T05:00:51.946Z,98972.00
2023-12-24T05:05:01.933Z,98980.22
2023-12-24T05:09:11.939Z,98981.77
2023-12-24T05:13:21.674Z,98979.84
2023-12-24T05:17:31.491Z,98979.79
2023-12-24T05:21:35.012Z,98982.27
2023-12-24T05:25:39.085Z,98979.63
2023-12-24T05:29:49.108Z,98982.61
2023-12-24T05:33:59.189Z,98985.19
2023-12-24T05:37:59.665Z,98988.21
2023-12-24T05:42:09.943Z,98991.42
2023-12-24T05:46:21.126Z,98994.30
2023-12-24T05:50:37.131Z,98996.80
2023-12-24T05:54:46.916Z,98999.48
2023-12-24T05:58:56.790Z,98995.13
2023-12-24T06:03:06.479Z,98995.23
2023-12-24T06:07:09.338Z,98992.59
2023-12-24T06:11:09.279Z,98994.71
2023-12-24T06:15:19.548Z,98992.61
2023-12-24T06:19:29.532Z,98994.88
2023-12-24T06:23:39.627Z,99000.55
2023-12-24T06:27:49.296Z,99005.09
2023-12-24T06:32:01.447Z,99006.02
2023-12-24T06:36:11.281Z,99006.27
2023-12-24T06:40:21.552Z,99000.59
2023-12-24T06:44:31.137Z,99004.75
2023-12-24T06:48:41.374Z,99005.22
2023-12-24T06:52:51.557Z,98999.70
2023-12-24T06:57:01.795Z,99001.41
2023-12-24T07:01:10.309Z,99005.02
2023-12-24T07:05:20.215Z,99009.90
2023-12-24T07:09:30.473Z,99005.38
2023-12-24T07:13:33.964Z,99000.88
2023-12-24T07:17:26.829Z,99007.63
2023-12-24T07:21:36.685Z,99003.73
2023-12-24T07:25:46.558Z,99001.27
2023-12-24T07:29:56.397Z,99002.83
2023-12-24T07:34:06.178Z,99006.20
2023-12-24T07:38:16.138Z,99005.25
2023-12-24T07:42:25.955Z,99011.02
2023-12-24T07:46:37.553Z,99008.69
2023-12-24T07:50:48.194Z,99006.42
2023-12-24T07:54:58.192Z,99005.45
2023-12-24T07:59:07.902Z,99007.29
2023-12-24T08:03:17.656Z,99004.95
2023-12-24T08:07:28.145Z,99009.96
2023-12-24T08:11:38.086Z,99002.60
2023-12-24T08:15:49.364Z,99014.70
2023-12-24T08:19:50.699Z,99012.35
2023-12-24T08:24:32.279Z,99011.80
2023-12-24T08:28:42.018Z,99008.19
2023-12-24T08:32:52.051Z,99009.08
2023-12-24T08:37:02.306Z,99007.46
2023-12-24T08:41:12.182Z,99008.39
2023-12-24T08:45:21.943Z,99011.70
2023-12-24T08:49:31.773Z,99001.57
2023-12-24T08:53:41.729Z,99008.50
2023-12-24T08:57:51.556Z,99005.73
2023-12-24T09:01:05.741Z,99001.05
2023-12-24T09:04:03.631Z,98999.15
2023-12-24T09:06:47.680Z,99002.50
2023-12-24T09:09:42.671Z,99005.29
2023-12-24T09:12:25.880Z,99006.53
2023-12-24T09:15:12.893Z,99006.27
2023-12-24T09:18:45.833Z,99000.27
2023-12-24T09:22:53.350Z,98993.81
2023-12-24T09:27:03.427Z,98992.58
2023-12-24T09:31:13.443Z,98981.26
2023-12-24T09:35:23.221Z,98979.55
2023-12-24T09:39:32.938Z,98973.80
2023-12-24T09:43:42.953Z,98960.77
2023-12-24T09:47:07.004Z,98958.09
2023-12-24T09:50:06.053Z,98952.63
2023-12-24T09:53:12.186Z,98951.75
2023-12-24T09:56:09.889Z,98952.21
2023-12-24T09:58:56.216Z,98947.23
2023-12-24T10:02:57.568Z,98938.24
2023-12-24T10:07:10.679Z,98926.52
2023-12-24T10:11:20.761Z,98919.06
2023-12-24T10:15:30.113Z,98922.50
2023-12-24T10:19:40.075Z,98925.42
2023-12-24T10:23:49.770Z,98932.95
2023-12-24T10:28:06.636Z,98935.73
2023-12-24T10:32:17.111Z,98933.81
2023-12-24T10:36:27.063Z,98927.81
2023-12-24T10:40:45.660Z,98928.83
2023-12-24T10:44:46.054Z,98927.40
2023-12-24T10:48:56.148Z,98932.91
2023-12-24T10:53:06.269Z,98926.33
2023-12-24T10:57:16.138Z,98926.63
2023-12-24T11:01:17.220Z,98924.80
2023-12-24T11:05:45.878Z,98918.58
2023-12-24T11:09:56.177Z,98916.86
2023-12-24T11:14:11.728Z,98914.56
2023-12-24T11:18:37.125Z,98916.20
2023-12-24T11:22:48.955Z,98912.44
2023-12-24T11:27:10.638Z,98899.36
2023-12-24T11:31:26.579Z,98898.95
2023-12-24T11:35:35.106Z,98898.96
2023-12-24T11:39:45.345Z,98892.58
2023-12-24T11:43:57.946Z,98876.17
2023-12-24T11:48:07.944Z,98876.43
2023-12-24T11:52:18.116Z,98860.41
2023-12-24T11:56:28.411Z,98850.16
2023-12-24T12:00:38.664Z,98842.78
2023-12-24T12:04:48.788Z,98839.60
2023-12-24T12:08:58.717Z,98834.23
2023-12-24T12:13:08.813Z,98828.96
2023-12-24T12:17:18.706Z,98827.83
2023-12-24T12:21:28.638Z,98830.20
2023-12-24T12:25:38.390Z,98823.35
2023-12-24T12:29:48.605Z,98820.50
2023-12-24T12:33:51.006Z,98814.52
2023-12-24T12:38:00.801Z,98807.39
2023-12-24T12:42:13.383Z,98804.53
2023-12-24T12:46:23.269Z,98792.80
2023-12-24T12:50:33.917Z,98792.53
2023-12-24T12:54:46.821Z,98779.51
2023-12-24T12:58:56.645Z,98766.39
2023-12-24T13:03:06.724Z,98758.24
2023-12-24T13:07:19.280Z,98765.97
2023-12-24T13:11:32.085Z,98757.96
2023-12-24T14:49:15.941Z,98590.09
2023-12-24T14:53:28.800Z,98568.63
2023-12-24T14:57:39.049Z,98558.80
2023-12-24T15:01:49.272Z,98553.01
2023-12-24T15:05:59.101Z,98561.67
2023-12-24T15:10:08.838Z,98544.98
2023-12-24T15:14:18.717Z,98528.77
2023-12-24T15:18:28.949Z,98524.09
2023-12-24T15:22:38.919Z,98516.46
2023-12-24T15:26:48.631Z,98513.91
2023-12-24T15:30:58.648Z,98491.05
2023-12-24T15:35:09.733Z,98483.13
2023-12-24T15:39:19.969Z,98459.59
2023-12-24T15:43:29.875Z,98445.64
2023-12-24T15:47:39.552Z,98427.26
2023-12-24T15:51:49.389Z,98419.29
2023-12-24T15:55:59.099Z,98404.42
2023-12-24T16:00:08.838Z,98394.11
2023-12-24T16:04:18.800Z,98375.23
2023-12-24T16:08:29.125Z,98366.39
2023-12-24T16:12:38.946Z,98344.63
2023-12-24T16:16:48.950Z,98337.67
2023-12-24T16:20:58.815Z,98328.34
2023-12-24T16:25:08.639Z,98323.39
2023-12-24T16:29:18.212Z,98304.45
2023-12-24T16:33:28.045Z,98277.96
2023-12-24T16:37:38.022Z,98282.94
2023-12-24T16:41:48.269Z,98257.70
2023-12-24T16:45:58.239Z,98243.30
2023-12-24T16:50:08.140Z,98248.02
2023-12-24T16:54:18.033Z,98217.90
2023-12-24T16:58:27.914Z,98193.25
2023-12-24T17:02:37.931Z,98205.52
2023-12-24T17:06:47.875Z,98202.66
2023-12-24T17:10:47.609Z,98193.16
2023-12-24T17:14:57.582Z,98155.61
2023-12-24T17:19:07.412Z,98143.77
2023-12-24T17:23:17.347Z,98129.15
2023-12-24T17:27:27.359Z,98111.45
2023-12-24T17:31:37.680Z,98109.52
2023-12-24T17:35:47.440Z,98110.71
2023-12-24T17:39:57.086Z,98085.23
2023-12-24T17:44:06.932Z,98093.80
2023-12-24T17:48:20.210Z,98099.63
2023-12-24T17:52:32.507Z,98074.52
2023-12-24T17:56:42.374Z,98055.69
2023-12-24T18:00:52.622Z,98059.33
2023-12-24T18:05:02.613Z,98048.42
2023-12-24T18:09:04.842Z,98029.09
2023-12-24T18:13:15.137Z,98028.39
2023-12-24T18:17:25.046Z,98028.36
2023-12-24T18:21:35.030Z,98013.58
2023-12-24T18:25:44.774Z,97993.81
2023-12-24T18:29:47.779Z,97992.70
2023-12-24T18:33:57.893Z,97981.12
2023-12-24T18:38:08.003Z,97950.68
2023-12-24T18:42:17.714Z,97941.63
2023-12-24T18:46:27.570Z,97934.11
2023-12-24T18:50:28.839Z,97912.98
2023-12-24T18:54:38.782Z,97902.93
2023-12-24T18:58:48.725Z,97895.16
2023-12-24T19:02:58.915Z,97897.95
2023-12-24T19:07:09.193Z,97885.44
2023-12-24T19:11:19.193Z,97864.83
2023-12-24T19:15:28.965Z,97849.27
2023-12-24T19:19:38.865Z,97840.70
2023-12-24T19:23:49.513Z,97832.98
2023-12-24T19:28:00.939Z,97828.58
2023-12-24T19:32:13.629Z,97825.88
2023-12-24T19:36:26.371Z,97816.73
2023-12-24T19:40:36.126Z,97801.22
2023-12-24T19:44:44.834Z,97797.27
2023-12-24T19:48:54.930Z,97793.25
2023-12-24T19:53:05.409Z,97790.05
2023-12-24T20:08:58.637Z,97750.27
2023-12-24T20:13:08.455Z,97728.42
2023-12-24T20:17:18.220Z,97711.52
2023-12-24T20:21:28.113Z,97719.91
2023-12-24T20:25:37.965Z,97722.05
2023-12-24T20:29:47.934Z,97698.77
2023-12-24T20:34:00.756Z,97693.20
2023-12-24T20:38:10.962Z,97683.20
2023-12-24T20:42:23.748Z,97675.92
2023-12-24T20:46:33.499Z,97661.31
2023-12-24T20:50:43.176Z,97660.80
2023-12-24T20:54:53.197Z,97648.02
2023-12-24T20:59:02.935Z,97637.88
2023-12-24T21:03:12.848Z,97626.86
2023-12-24T21:07:25.224Z,97599.82
2023-12-24T21:11:35.611Z,97589.98
2023-12-24T21:15:44.353Z,97566.13
2023-12-24T21:19:54.109Z,97559.43
2023-12-24T21:24:04.094Z,97552.30
2023-12-24T21:28:15.387Z,97539.39
2023-12-24T21:31:29.838Z,97524.59
2023-12-24T21:34:15.372Z,97502.76
2023-12-24T21:36:57.914Z,97487.53
2023-12-24T21:40:12.170Z,97481.42
2023-12-24T21:43:00.449Z,97485.10
2023-12-24T21:45:37.585Z,97492.30
2023-12-24T21:48:15.897Z,97496.49
2023-12-24T21:50:45.505Z,97476.85
2023-12-24T21:53:33.123Z,97476.59
2023-12-24T21:56:08.416Z,97466.30
2023-12-24T21:59:02.837Z,97469.17
2023-12-24T22:01:34.538Z,97455.02
2023-12-24T22:04:32.232Z,97451.25
2023-12-24T22:07:26.361Z,97435.20
2023-12-24T22:10:07.844Z,97419.67
2023-12-24T22:12:52.414Z,97398.46
2023-12-24T22:16:33.900Z,97396.57
2023-12-24T22:20:43.784Z,97394.97
2023-12-24T22:24:56.354Z,97404.89
2023-12-24T22:29:06.219Z,97399.48
2023-12-24T22:32:18.794Z,97387.45
2023-12-24T22:34:58.128Z,97387.19
2023-12-24T22:38:02.044Z,97383.70
2023-12-24T22:40:47.285Z,97393.70
2023-12-24T22:43:27.971Z,97410.05
2023-12-24T22:47:21.021Z,97418.44
2023-12-24T22:51:30.676Z,97418.13
2023-12-24T22:55:40.634Z,97391.51
2023-12-24T22:59:50.438Z,97398.34
2023-12-24T23:04:00.588Z,97421.83
2023-12-24T23:08:03.165Z,97426.98
2023-12-24T23:11:53.930Z,97427.98
2023-12-24T23:16:03.728Z,97431.48
2023-12-24T23:20:18.658Z,97458.33
2023-12-24T23:24:28.406Z,97477.13
2023-12-24T23:28:38.264Z,97486.80
2023-12-24T23:32:48.587Z,97499.15
2023-12-24T23:36:58.724Z,97527.59
2023-12-24T23:41:08.677Z,97539.61
2023-12-24T23:45:18.659Z,97555.97
2023-12-24T23:49:28.498Z,97566.59
2023-12-24T23:53:39.097Z,97571.02
2023-12-24T23:57:48.799Z,97575.65
